createdAt,value
2019-01-16T00:04:55.303Z,2
2019-01-16T00:09:57.788Z,4
2019-01-16T00:15:00.212Z,4
2019-01-16T00:20:02.714Z,3
2019-01-16T00:25:05.123Z,5
2019-01-16T00:30:07.609Z,4
2019-01-16T00:35:10.081Z,4
2019-01-16T00:45:14.962Z,5
2019-01-16T00:50:17.451Z,3
2019-01-16T00:55:19.879Z,5
2019-01-16T01:00:22.383Z,5
2019-01-16T01:05:24.799Z,3
2019-01-16T01:10:27.274Z,4
2019-01-16T01:15:29.707Z,5
2019-01-16T01:20:32.157Z,3
2019-01-16T01:25:34.621Z,4
2019-01-16T01:30:37.112Z,4
2019-01-16T01:35:39.533Z,4
2019-01-16T01:40:42.074Z,3
2019-01-16T01:45:44.497Z,3
2019-01-16T01:50:46.903Z,3
2019-01-16T01:55:49.364Z,4
2019-01-16T02:00:51.817Z,3
2019-01-16T02:05:54.295Z,4
2019-01-16T02:10:56.749Z,3
2019-01-16T02:15:59.184Z,3
2019-01-16T02:21:01.695Z,3
2019-01-16T02:26:04.110Z,3
2019-01-16T02:31:06.552Z,3
2019-01-16T02:36:09.061Z,2
2019-01-16T02:41:11.483Z,3
2019-01-16T02:46:13.962Z,3
2019-01-16T02:51:16.421Z,2
2019-01-16T02:56:18.875Z,2
2019-01-16T03:01:21.312Z,2
2019-01-16T03:06:23.757Z,2
2019-01-16T03:11:26.217Z,2
2019-01-16T03:16:28.668Z,2
2019-01-16T03:21:31.134Z,2
2019-01-16T03:26:33.576Z,2
2019-01-16T03:31:36.046Z,2
2019-01-16T03:41:40.983Z,2
2019-01-16T03:46:43.409Z,2
2019-01-16T03:51:45.866Z,2
2019-01-16T03:56:48.327Z,2
2019-01-16T04:01:50.778Z,1
2019-01-16T04:06:53.240Z,2
2019-01-16T04:11:55.695Z,2
2019-01-16T04:16:58.437Z,2
2019-01-16T04:22:00.620Z,2
2019-01-16T04:27:03.069Z,2
2019-01-16T04:32:05.515Z,2
2019-01-16T04:37:07.976Z,2
2019-01-16T04:42:10.486Z,2
2019-01-16T04:47:12.917Z,2
2019-01-16T04:52:15.352Z,2
2019-01-16T04:57:17.814Z,2
2019-01-16T05:02:20.274Z,2
2019-01-16T05:07:22.723Z,2
2019-01-16T05:12:25.168Z,2
2019-01-16T05:17:27.636Z,2
2019-01-16T05:22:30.106Z,2
2019-01-16T05:27:32.577Z,2
2019-01-16T05:32:35.007Z,2
2019-01-16T05:37:37.493Z,2
2019-01-16T05:42:39.948Z,1
2019-01-16T05:47:42.387Z,2
2019-01-16T05:52:44.842Z,2
2019-01-16T05:57:47.336Z,2
2019-01-16T06:02:49.753Z,1
2019-01-16T06:07:52.229Z,2
2019-01-16T06:12:54.686Z,2
2019-01-16T06:17:57.158Z,2
2019-01-16T06:28:02.086Z,2
2019-01-16T06:33:04.500Z,2
2019-01-16T06:38:06.980Z,2
2019-01-16T06:43:09.413Z,2
2019-01-16T06:48:11.906Z,2
2019-01-16T06:53:14.334Z,1
2019-01-16T06:58:16.800Z,2
2019-01-16T07:03:19.250Z,2
2019-01-16T07:08:21.705Z,3
2019-01-16T07:13:24.160Z,2
2019-01-16T07:18:26.613Z,2
2019-01-16T07:23:29.070Z,1
2019-01-16T07:28:31.522Z,1
2019-01-16T07:33:33.992Z,1
2019-01-16T07:38:36.453Z,1
2019-01-16T07:43:38.891Z,2
2019-01-16T07:48:41.360Z,1
2019-01-16T07:53:43.806Z,2
2019-01-16T07:58:46.307Z,1
2019-01-16T08:03:48.730Z,2
2019-01-16T08:08:51.176Z,2
2019-01-16T08:13:53.723Z,1
2019-01-16T08:18:56.216Z,2
2019-01-16T08:23:58.640Z,2
2019-01-16T08:29:01.012Z,1
2019-01-16T08:34:03.500Z,1
2019-01-16T08:39:05.954Z,1
2019-01-16T08:44:13.563Z,1
2019-01-16T08:49:10.859Z,1
2019-01-16T08:54:13.367Z,1
2019-01-16T08:59:15.772Z,1
2019-01-16T09:04:18.223Z,1
2019-01-16T09:09:20.675Z,1
2019-01-16T09:14:23.134Z,1
2019-01-16T09:19:25.668Z,1
2019-01-16T09:24:28.056Z,1
2019-01-16T09:29:30.503Z,1
2019-01-16T09:34:32.967Z,1
2019-01-16T09:39:35.428Z,1
2019-01-16T09:44:37.890Z,1
2019-01-16T09:49:40.334Z,1
2019-01-16T09:54:42.789Z,2
2019-01-16T09:59:45.270Z,3
2019-01-16T10:04:47.718Z,2
2019-01-16T10:09:50.174Z,2
2019-01-16T10:14:52.613Z,2
2019-01-16T10:19:55.087Z,3
2019-01-16T10:24:57.540Z,2
2019-01-16T10:30:00.180Z,3
2019-01-16T10:35:02.571Z,2
2019-01-16T10:40:04.951Z,2
2019-01-16T10:45:07.361Z,1
2019-01-16T10:50:09.924Z,1
2019-01-16T10:55:12.269Z,2
2019-01-16T11:00:14.754Z,1
2019-01-16T11:05:17.300Z,2
2019-01-16T11:10:19.670Z,2
2019-01-16T11:15:22.121Z,2
2019-01-16T11:20:24.575Z,2
2019-01-16T11:25:27.051Z,3
2019-01-16T11:30:29.512Z,2
2019-01-16T11:35:31.958Z,2
2019-01-16T11:40:34.394Z,2
2019-01-16T11:45:36.843Z,2
2019-01-16T11:50:39.339Z,2
2019-01-16T11:55:41.804Z,2
2019-01-16T12:00:44.239Z,3
2019-01-16T12:05:46.677Z,2
2019-01-16T12:10:49.141Z,2
2019-01-16T12:15:51.596Z,2
2019-01-16T12:20:54.079Z,6
2019-01-16T12:30:58.967Z,3
2019-01-16T12:36:01.517Z,4
2019-01-16T12:41:03.885Z,4
2019-01-16T12:46:06.330Z,3
2019-01-16T12:51:08.791Z,3
2019-01-16T12:56:11.297Z,3
2019-01-16T13:01:13.702Z,5
2019-01-16T13:06:16.359Z,3
2019-01-16T13:11:18.610Z,3
2019-01-16T13:16:21.084Z,3
2019-01-16T13:21:23.543Z,3
2019-01-16T13:26:25.999Z,3
2019-01-16T13:31:28.445Z,4
2019-01-16T13:36:30.907Z,3
2019-01-16T13:41:33.365Z,3
2019-01-16T13:46:35.877Z,3
2019-01-16T13:51:38.374Z,3
2019-01-16T13:56:40.758Z,4
2019-01-16T14:01:43.193Z,5
2019-01-16T14:06:45.653Z,4
2019-01-16T14:11:48.093Z,5
2019-01-16T14:16:50.585Z,6
2019-01-16T14:21:53.233Z,5
2019-01-16T14:26:55.579Z,3
2019-01-16T14:31:57.999Z,6
2019-01-16T14:37:00.399Z,7
2019-01-16T14:42:02.845Z,19
2019-01-16T14:47:05.296Z,3
2019-01-16T14:52:07.767Z,4
2019-01-16T14:57:10.245Z,4
2019-01-16T15:02:12.662Z,4
2019-01-16T15:07:15.146Z,6
2019-01-16T15:12:17.590Z,5
2019-01-16T15:17:20.068Z,5
2019-01-16T15:22:22.607Z,6
2019-01-16T15:27:24.954Z,5
2019-01-16T15:32:27.434Z,8
2019-01-16T15:37:30.386Z,6
2019-01-16T15:42:32.410Z,7
2019-01-16T15:47:34.917Z,6
2019-01-16T15:52:37.245Z,8
2019-01-16T15:57:39.760Z,7
2019-01-16T16:02:46.711Z,9
2019-01-16T16:07:44.715Z,11
2019-01-16T16:12:47.082Z,18
2019-01-16T16:17:49.560Z,6
2019-01-16T16:22:52.010Z,6
2019-01-16T16:27:54.471Z,5
2019-01-16T16:32:56.893Z,6
2019-01-16T16:37:59.354Z,5
2019-01-16T16:43:01.869Z,9
2019-01-16T16:48:04.258Z,6
2019-01-16T16:53:06.730Z,8
2019-01-16T16:58:09.216Z,9
2019-01-16T17:03:11.707Z,11
2019-01-16T17:08:14.130Z,30
2019-01-16T17:13:16.854Z,11
2019-01-16T17:18:19.011Z,24
2019-01-16T17:23:21.612Z,31
2019-01-16T17:28:23.943Z,13
2019-01-16T17:33:26.394Z,14
2019-01-16T17:38:28.844Z,11
2019-01-16T17:43:31.353Z,8
2019-01-16T17:48:33.764Z,11
2019-01-16T17:53:36.216Z,8
2019-01-16T17:58:38.667Z,8
2019-01-16T18:03:41.125Z,14
2019-01-16T18:08:43.656Z,9
2019-01-16T18:13:46.061Z,5
2019-01-16T18:18:48.563Z,6
2019-01-16T18:23:50.956Z,6
2019-01-16T18:28:53.446Z,4
2019-01-16T18:33:55.879Z,5
2019-01-16T18:38:58.346Z,9
2019-01-16T18:44:00.792Z,5
2019-01-16T18:49:03.283Z,7
2019-01-16T18:54:05.709Z,5
2019-01-16T18:59:08.166Z,5
2019-01-16T19:04:10.626Z,5
2019-01-16T19:09:13.076Z,5
2019-01-16T19:14:15.529Z,5
2019-01-16T19:19:17.993Z,5
2019-01-16T19:24:20.514Z,5
2019-01-16T19:29:23.003Z,4
2019-01-16T19:34:25.388Z,4
2019-01-16T19:39:27.843Z,8
2019-01-16T19:44:30.300Z,5
2019-01-16T19:49:32.737Z,5
2019-01-16T19:54:35.198Z,5
2019-01-16T19:59:37.630Z,4
2019-01-16T20:04:40.093Z,4
2019-01-16T20:09:42.563Z,4
2019-01-16T20:14:45.007Z,3
2019-01-16T20:19:47.499Z,4
2019-01-16T20:24:49.946Z,4
2019-01-16T20:29:52.428Z,5
2019-01-16T20:34:54.830Z,5
2019-01-16T20:39:57.295Z,4
2019-01-16T20:44:59.771Z,6
2019-01-16T20:50:02.284Z,5
2019-01-16T20:55:04.679Z,6
2019-01-16T21:00:07.172Z,4
2019-01-16T21:05:09.579Z,3
2019-01-16T21:10:12.047Z,4
2019-01-16T21:15:14.507Z,3
2019-01-16T21:20:16.951Z,4
2019-01-16T21:25:19.539Z,4
2019-01-16T21:30:21.877Z,3
2019-01-16T21:35:24.321Z,3
2019-01-16T21:40:26.813Z,3
2019-01-16T21:45:29.242Z,4
2019-01-16T21:50:31.688Z,3
2019-01-16T21:55:34.155Z,4
2019-01-16T22:00:36.622Z,3
2019-01-16T22:05:39.064Z,3
2019-01-16T22:10:41.522Z,5
2019-01-16T22:15:43.984Z,2
2019-01-16T22:20:46.437Z,3
2019-01-16T22:25:48.892Z,2
2019-01-16T22:30:51.384Z,2
2019-01-16T22:35:53.832Z,4
2019-01-16T22:40:56.267Z,3
2019-01-16T22:45:58.716Z,1
2019-01-16T22:51:01.258Z,2
2019-01-16T22:56:03.683Z,2
2019-01-16T23:01:06.134Z,4
2019-01-16T23:06:08.560Z,3
2019-01-16T23:11:11.020Z,1
2019-01-16T23:16:13.477Z,2
2019-01-16T23:21:15.923Z,2
2019-01-16T23:26:18.423Z,3
2019-01-16T23:31:20.849Z,2
2019-01-16T23:36:23.319Z,3
2019-01-16T23:41:25.857Z,4
2019-01-16T23:46:28.230Z,3
2019-01-16T23:51:30.687Z,3
2019-01-16T23:56:33.157Z,3
